createdAt,value
2023-05-08T00:01:55.427Z,49.56
2023-05-08T00:04:23.478Z,49.83
2023-05-08T00:06:52.971Z,49.99
2023-05-08T00:09:21.155Z,49.76
2023-05-08T00:11:49.489Z,49.75
2023-05-08T00:14:17.535Z,49.74
2023-05-08T00:16:45.739Z,49.73
2023-05-08T00:19:15.179Z,49.66
2023-05-08T00:21:43.234Z,50.01
2023-05-08T00:24:11.269Z,49.79
2023-05-08T00:26:39.316Z,49.64
2023-05-08T00:29:07.368Z,49.63
2023-05-08T00:31:35.437Z,49.98
2023-05-08T00:34:03.772Z,50.08
2023-05-08T00:36:33.383Z,49.98
2023-05-08T00:39:01.568Z,49.94
2023-05-08T00:41:29.687Z,50.08
2023-05-08T00:43:58.014Z,49.84
2023-05-08T00:46:26.419Z,49.89
2023-05-08T00:48:54.872Z,49.82
2023-05-08T00:51:23.687Z,50.01
2023-05-08T00:53:53.210Z,49.95
2023-05-08T00:56:22.322Z,49.79
2023-05-08T00:58:50.848Z,49.74
2023-05-08T01:01:21.808Z,49.92
2023-05-08T01:03:50.088Z,50.24
2023-05-08T01:06:21.396Z,49.89
2023-05-08T01:08:52.039Z,50.13
2023-05-08T01:11:35.112Z,50.14
2023-05-08T01:14:12.562Z,49.95
2023-05-08T01:16:45.347Z,50.18
2023-05-08T01:19:41.976Z,50.14
2023-05-08T01:22:18.427Z,50.24
2023-05-08T01:25:17.871Z,50.08
2023-05-08T01:28:15.630Z,50.24
2023-05-08T01:31:03.583Z,50.18
2023-05-08T01:33:39.296Z,50.18
2023-05-08T01:36:18.931Z,50.55
2023-05-08T01:38:54.843Z,50.34
2023-05-08T01:41:27.355Z,50.43
2023-05-08T01:44:07.368Z,50.58
2023-05-08T01:46:35.564Z,50.87
2023-05-08T01:49:10.356Z,50.63
2023-05-08T01:51:43.725Z,50.67
2023-05-08T01:54:16.610Z,50.79
2023-05-08T01:56:48.122Z,50.76
2023-05-08T01:59:20.896Z,51.06
2023-05-08T02:01:50.450Z,51.08
2023-05-08T02:04:21.994Z,50.92
2023-05-08T02:06:52.175Z,51.37
2023-05-08T02:09:23.732Z,51.23
2023-05-08T02:11:53.223Z,51.30
2023-05-08T02:14:22.188Z,51.52
2023-05-08T02:16:52.746Z,51.72
2023-05-08T02:19:24.510Z,51.69
2023-05-08T02:21:54.030Z,51.90
2023-05-08T02:24:23.471Z,52.14
2023-05-08T02:26:54.443Z,51.98
2023-05-08T02:29:25.028Z,52.07
2023-05-08T02:31:56.089Z,52.06
2023-05-08T02:34:26.796Z,52.09
2023-05-08T02:36:55.558Z,52.49
2023-05-08T02:39:27.282Z,52.22
2023-05-08T02:41:55.471Z,52.42
2023-05-08T02:44:24.921Z,52.72
2023-05-08T02:46:58.458Z,52.24
2023-05-08T02:49:33.169Z,51.79
2023-05-08T02:52:06.815Z,51.85
2023-05-08T02:54:43.430Z,51.95
2023-05-08T02:57:19.832Z,52.11
2023-05-08T02:59:55.870Z,52.06
2023-05-08T03:02:33.383Z,52.12
2023-05-08T03:05:06.828Z,52.38
2023-05-08T03:07:39.450Z,52.48
2023-05-08T03:10:13.094Z,52.33
2023-05-08T03:12:44.110Z,52.69
2023-05-08T03:15:18.973Z,52.59
2023-05-08T03:17:48.030Z,52.83
2023-05-08T03:20:19.834Z,52.75
2023-05-08T03:22:49.684Z,52.83
2023-05-08T03:25:19.702Z,52.61
2023-05-08T03:27:50.201Z,52.55
2023-05-08T03:30:19.633Z,52.54
2023-05-08T03:32:58.573Z,52.73
2023-05-08T03:35:29.446Z,52.76
2023-05-08T03:37:57.837Z,52.88
2023-05-08T03:40:26.160Z,52.88
2023-05-08T03:42:54.581Z,52.90
2023-05-08T03:45:23.676Z,52.99
2023-05-08T03:47:53.878Z,52.96
2023-05-08T03:50:23.062Z,53.00
2023-05-08T03:52:53.349Z,52.79
2023-05-08T03:55:21.698Z,52.78
2023-05-08T03:57:57.266Z,52.69
2023-05-08T04:00:33.111Z,52.76
2023-05-08T04:03:13.456Z,52.69
2023-05-08T04:05:51.393Z,52.79
2023-05-08T04:08:27.141Z,52.62
2023-05-08T04:11:05.393Z,52.59
2023-05-08T04:13:38.561Z,52.56
2023-05-08T04:16:13.152Z,52.76
2023-05-08T04:18:46.817Z,52.72
2023-05-08T04:21:21.440Z,52.96
2023-05-08T04:23:52.798Z,53.07
2023-05-08T04:26:20.956Z,53.23
2023-05-08T04:28:50.484Z,53.08
2023-05-08T04:31:19.051Z,52.98
2023-05-08T04:33:48.031Z,52.98
2023-05-08T04:36:16.196Z,52.92
2023-05-08T04:38:45.968Z,52.77
2023-05-08T04:41:16.111Z,52.73
2023-05-08T04:43:44.854Z,52.63
2023-05-08T04:46:13.572Z,52.49
2023-05-08T04:48:41.688Z,52.36
2023-05-08T04:51:09.723Z,52.33
2023-05-08T04:53:37.860Z,52.37
2023-05-08T04:56:06.467Z,52.11
2023-05-08T04:58:36.081Z,52.08
2023-05-08T05:01:04.699Z,52.01
2023-05-08T05:03:34.058Z,52.01
2023-05-08T05:06:02.771Z,51.92
2023-05-08T05:08:30.788Z,52.09
2023-05-08T05:10:59.909Z,52.11
2023-05-08T05:13:28.962Z,52.07
2023-05-08T05:16:00.485Z,51.96
2023-05-08T05:18:28.602Z,52.11
2023-05-08T05:20:59.277Z,52.02
2023-05-08T05:23:28.082Z,52.29
2023-05-08T05:25:56.127Z,52.24
2023-05-08T05:28:24.338Z,52.23
2023-05-08T05:30:52.676Z,52.26
2023-05-08T05:33:22.177Z,52.38
2023-05-08T05:35:50.667Z,52.21
2023-05-08T05:38:18.834Z,52.09
2023-05-08T05:40:46.856Z,52.21
2023-05-08T05:43:14.946Z,52.24
2023-05-08T05:45:43.041Z,52.29
2023-05-08T05:48:11.466Z,52.39
2023-05-08T05:50:40.950Z,52.53
2023-05-08T05:53:09.904Z,52.31
2023-05-08T05:55:38.233Z,52.08
2023-05-08T05:58:06.785Z,51.90
2023-05-08T06:00:36.297Z,51.60
2023-05-08T06:03:04.835Z,51.58
2023-05-08T06:05:33.095Z,51.46
2023-05-08T06:08:02.652Z,51.25
2023-05-08T06:10:31.091Z,51.19
2023-05-08T06:12:59.203Z,51.27
2023-05-08T06:15:27.943Z,51.14
2023-05-08T06:17:56.109Z,50.87
2023-05-08T06:20:26.293Z,50.69
2023-05-08T06:22:54.644Z,50.24
2023-05-08T06:25:24.217Z,50.17
2023-05-08T06:27:52.276Z,49.98
2023-05-08T06:30:20.314Z,50.08
2023-05-08T06:32:48.403Z,50.21
2023-05-08T06:35:18.535Z,49.77
2023-05-08T06:37:46.648Z,49.21
2023-05-08T06:40:15.112Z,48.66
2023-05-08T06:42:44.577Z,48.83
2023-05-08T06:45:13.602Z,48.73
2023-05-08T06:47:41.893Z,48.68
2023-05-08T06:50:10.837Z,48.33
2023-05-08T06:52:39.118Z,48.60
2023-05-08T06:55:07.806Z,48.31
2023-05-08T06:57:36.068Z,47.67
2023-05-08T07:00:06.231Z,47.41
2023-05-08T07:02:34.304Z,47.13
2023-05-08T07:05:03.299Z,47.02
2023-05-08T07:07:31.565Z,46.95
2023-05-08T07:09:59.715Z,46.36
2023-05-08T07:12:27.730Z,45.08
2023-05-08T07:14:57.258Z,45.73
2023-05-08T07:17:27.595Z,45.42
2023-05-08T07:19:55.644Z,44.61
2023-05-08T07:22:23.652Z,43.42
2023-05-08T07:24:51.715Z,42.57
2023-05-08T07:27:20.305Z,42.45
2023-05-08T07:29:48.358Z,41.60
2023-05-08T07:32:16.433Z,41.17
2023-05-08T07:34:45.906Z,41.52
2023-05-08T07:37:14.146Z,42.84
2023-05-08T07:39:42.234Z,42.13
2023-05-08T07:42:10.243Z,41.81
2023-05-08T07:44:51.030Z,41.16
2023-05-08T07:47:22.714Z,40.98
2023-05-08T07:49:52.627Z,41.80
2023-05-08T07:52:20.644Z,40.99
2023-05-08T07:54:48.809Z,41.00
2023-05-08T07:57:16.819Z,40.49
2023-05-08T07:59:44.845Z,39.58
2023-05-08T08:02:13.139Z,40.48
2023-05-08T08:04:41.276Z,39.69
2023-05-08T08:07:10.658Z,39.48
2023-05-08T08:09:38.718Z,39.22
2023-05-08T08:12:07.115Z,39.04
2023-05-08T08:14:35.169Z,38.55
2023-05-08T08:17:03.216Z,38.30
2023-05-08T08:19:31.275Z,37.95
2023-05-08T08:21:59.437Z,37.30
2023-05-08T08:24:29.777Z,37.38
2023-05-08T08:26:58.167Z,38.56
2023-05-08T08:29:26.176Z,39.97
2023-05-08T08:31:54.220Z,40.23
2023-05-08T08:34:22.259Z,39.07
2023-05-08T08:36:50.437Z,39.10
2023-05-08T08:39:18.450Z,38.14
2023-05-08T08:41:48.163Z,37.95
2023-05-08T08:44:16.275Z,39.15
2023-05-08T08:46:49.331Z,39.02
2023-05-08T08:49:20.113Z,39.13
2023-05-08T08:51:52.815Z,39.52
2023-05-08T08:54:24.293Z,39.35
2023-05-08T08:56:54.403Z,39.27
2023-05-08T08:59:26.229Z,38.49
2023-05-08T09:01:57.824Z,38.04
2023-05-08T09:04:27.537Z,38.37
2023-05-08T09:06:58.166Z,38.31
2023-05-08T09:09:26.727Z,36.94
2023-05-08T09:11:56.124Z,37.55
2023-05-08T09:14:25.849Z,38.27
2023-05-08T09:16:55.026Z,37.68
2023-05-08T09:19:27.066Z,37.85
2023-05-08T09:21:56.465Z,36.50
2023-05-08T09:24:24.659Z,35.61
2023-05-08T09:26:52.693Z,35.03
2023-05-08T09:29:22.659Z,34.98
2023-05-08T09:31:52.211Z,35.50
2023-05-08T09:34:28.520Z,33.91
2023-05-08T09:36:57.372Z,34.98
2023-05-08T09:39:26.915Z,35.58
2023-05-08T09:41:59.561Z,34.60
2023-05-08T09:44:29.254Z,35.33
2023-05-08T09:47:12.290Z,35.05
2023-05-08T09:49:40.911Z,35.51
2023-05-08T09:52:09.551Z,35.30
2023-05-08T09:54:37.736Z,35.23
2023-05-08T09:57:13.416Z,36.20
2023-05-08T09:59:42.821Z,35.95
2023-05-08T10:02:16.318Z,35.34
2023-05-08T10:04:44.495Z,34.63
2023-05-08T10:07:12.565Z,33.64
2023-05-08T10:09:50.269Z,33.87
2023-05-08T10:12:19.759Z,34.03
2023-05-08T10:14:49.226Z,32.94
2023-05-08T10:17:22.090Z,32.22
2023-05-08T10:19:56.292Z,32.96
2023-05-08T10:22:26.626Z,32.60
2023-05-08T10:24:58.669Z,32.00
2023-05-08T10:27:35.553Z,32.89
2023-05-08T10:30:06.123Z,33.20
2023-05-08T10:32:40.670Z,32.51
2023-05-08T10:35:12.137Z,32.47
2023-05-08T10:37:42.382Z,32.48
2023-05-08T10:40:12.218Z,31.51
2023-05-08T10:42:41.125Z,32.15
2023-05-08T10:45:11.856Z,30.87
2023-05-08T10:47:52.587Z,31.39
2023-05-08T10:50:35.056Z,31.32
2023-05-08T10:53:09.338Z,30.09
2023-05-08T10:55:38.788Z,30.06
2023-05-08T10:58:11.424Z,30.21
2023-05-08T11:01:16.225Z,31.49
2023-05-08T11:03:47.290Z,30.87
2023-05-08T11:06:16.086Z,32.62
2023-05-08T11:08:49.800Z,30.98
2023-05-08T11:11:26.908Z,31.77
2023-05-08T11:14:00.599Z,30.80
2023-05-08T11:17:06.757Z,30.66
2023-05-08T11:19:37.446Z,31.40
2023-05-08T11:22:23.275Z,31.22
2023-05-08T11:24:55.658Z,30.58
2023-05-08T11:28:07.045Z,29.49
2023-05-08T11:30:37.710Z,28.82
2023-05-08T11:33:33.870Z,29.61
2023-05-08T11:36:14.099Z,28.73
2023-05-08T11:38:43.783Z,28.62
2023-05-08T11:41:21.749Z,29.02
2023-05-08T11:44:18.555Z,28.04
2023-05-08T11:46:51.925Z,28.77
2023-05-08T11:49:26.077Z,28.24
2023-05-08T11:52:00.487Z,27.73
2023-05-08T11:54:32.008Z,28.11
2023-05-08T11:57:01.920Z,28.29
2023-05-08T11:59:30.279Z,27.28
2023-05-08T12:02:07.904Z,28.17
2023-05-08T12:04:45.585Z,28.25
2023-05-08T12:07:16.192Z,29.40
2023-05-08T12:09:44.608Z,29.71
2023-05-08T12:12:12.915Z,29.62
2023-05-08T12:14:41.187Z,30.50
2023-05-08T12:17:09.618Z,31.18
2023-05-08T12:19:37.928Z,30.77
2023-05-08T12:22:06.255Z,30.57
2023-05-08T12:24:36.052Z,30.82
2023-05-08T12:27:05.146Z,30.26
2023-05-08T12:29:37.878Z,29.83
2023-05-08T12:32:06.772Z,29.03
2023-05-08T12:34:36.296Z,28.13
2023-05-08T12:37:06.769Z,28.36
2023-05-08T12:39:40.381Z,29.36
2023-05-08T12:42:08.860Z,29.57
2023-05-08T12:44:37.435Z,29.05
2023-05-08T12:47:07.149Z,29.76
2023-05-08T12:49:35.438Z,29.55
2023-05-08T12:52:08.696Z,28.83
2023-05-08T12:54:40.062Z,29.38
2023-05-08T12:57:12.868Z,29.42
2023-05-08T12:59:41.587Z,29.59
2023-05-08T13:02:17.864Z,29.14
2023-05-08T13:04:47.283Z,28.71
2023-05-08T13:07:15.864Z,28.89
2023-05-08T13:09:59.850Z,29.19
2023-05-08T13:12:28.291Z,29.67
2023-05-08T13:14:56.640Z,29.96
2023-05-08T13:17:25.162Z,28.93
2023-05-08T13:19:53.538Z,28.29
2023-05-08T13:22:23.215Z,28.32
2023-05-08T13:24:51.593Z,29.14
2023-05-08T13:27:21.571Z,29.22
2023-05-08T13:29:49.899Z,29.35
2023-05-08T13:32:18.666Z,29.39
2023-05-08T13:34:50.148Z,29.27
2023-05-08T13:37:19.354Z,29.29
2023-05-08T13:39:47.591Z,30.17
2023-05-08T13:42:15.907Z,29.14
2023-05-08T13:44:45.681Z,29.10
2023-05-08T13:47:13.982Z,28.52
2023-05-08T13:49:42.446Z,28.05
2023-05-08T13:52:10.657Z,28.74
2023-05-08T13:54:39.013Z,29.24
2023-05-08T13:57:08.163Z,30.34
2023-05-08T13:59:36.542Z,29.64
2023-05-08T14:02:06.302Z,29.87
2023-05-08T14:04:34.808Z,30.44
2023-05-08T14:07:03.085Z,30.42
2023-05-08T14:09:31.363Z,30.21
2023-05-08T14:11:59.801Z,30.26
2023-05-08T14:14:28.237Z,29.63
2023-05-08T14:16:56.546Z,28.99
2023-05-08T14:19:26.239Z,29.21
2023-05-08T14:21:54.566Z,28.81
2023-05-08T14:24:22.937Z,28.56
2023-05-08T14:26:51.243Z,28.16
2023-05-08T14:29:19.989Z,28.00
2023-05-08T14:31:48.332Z,27.87
2023-05-08T14:34:16.759Z,27.98
2023-05-08T14:36:46.435Z,28.10
2023-05-08T14:39:14.724Z,28.90
2023-05-08T14:41:51.222Z,28.90
2023-05-08T14:44:31.534Z,29.12
2023-05-08T14:46:59.934Z,28.60
2023-05-08T14:49:37.436Z,28.36
2023-05-08T14:52:08.538Z,28.48
2023-05-08T14:54:36.989Z,28.65
2023-05-08T14:57:05.567Z,27.66
2023-05-08T14:59:33.892Z,27.61
2023-05-08T15:02:02.249Z,27.81
2023-05-08T15:04:30.757Z,27.68
2023-05-08T15:06:59.059Z,28.44
2023-05-08T15:09:28.764Z,28.22
2023-05-08T15:11:57.093Z,28.13
2023-05-08T15:14:26.926Z,28.04
2023-05-08T15:16:55.291Z,28.96
2023-05-08T15:19:23.550Z,29.28
2023-05-08T15:21:51.791Z,28.19
2023-05-08T15:24:20.095Z,28.08
2023-05-08T15:26:50.340Z,27.92
2023-05-08T15:29:18.611Z,27.85
2023-05-08T15:31:47.032Z,27.98
2023-05-08T15:34:15.394Z,28.03
2023-05-08T15:36:43.761Z,28.40
2023-05-08T15:39:11.992Z,29.30
2023-05-08T15:41:41.348Z,28.64
2023-05-08T15:44:11.023Z,29.45
2023-05-08T15:46:39.302Z,30.00
2023-05-08T15:49:07.609Z,30.42
2023-05-08T15:51:35.986Z,31.05
2023-05-08T15:54:04.339Z,31.45
2023-05-08T15:56:32.757Z,31.96
2023-05-08T15:59:01.066Z,32.22
2023-05-08T16:01:30.817Z,32.49
2023-05-08T16:03:59.168Z,32.82
2023-05-08T16:06:27.645Z,33.31
2023-05-08T16:08:55.946Z,33.77
2023-05-08T16:11:24.342Z,33.95
2023-05-08T16:13:52.710Z,33.93
2023-05-08T16:16:21.073Z,33.89
2023-05-08T16:18:50.793Z,34.22
2023-05-08T16:21:19.151Z,34.01
2023-05-08T16:23:47.485Z,33.81
2023-05-08T16:26:16.651Z,33.91
2023-05-08T16:28:44.969Z,33.21
2023-05-08T16:31:13.197Z,32.90
2023-05-08T16:33:41.463Z,32.73
2023-05-08T16:36:11.280Z,32.67
2023-05-08T16:38:39.564Z,33.28
2023-05-08T16:41:09.184Z,33.44
2023-05-08T16:43:37.501Z,33.06
2023-05-08T16:46:07.479Z,33.26
2023-05-08T16:48:36.080Z,33.31
2023-05-08T16:51:04.523Z,33.49
2023-05-08T16:53:34.172Z,33.92
2023-05-08T16:56:02.458Z,34.25
2023-05-08T16:58:30.717Z,34.53
2023-05-08T17:00:59.094Z,34.91
2023-05-08T17:03:27.475Z,34.99
2023-05-08T17:05:55.812Z,35.21
2023-05-08T17:08:24.170Z,35.25
2023-05-08T17:10:54.849Z,35.68
2023-05-08T17:13:22.981Z,35.85
2023-05-08T17:18:19.053Z,35.93
2023-05-08T17:20:47.304Z,35.80
2023-05-08T17:23:15.463Z,35.73
2023-05-08T17:25:43.475Z,35.86
2023-05-08T17:28:12.947Z,35.73
2023-05-08T17:30:41.003Z,36.21
2023-05-08T17:33:09.096Z,36.05
2023-05-08T17:35:37.271Z,35.96
2023-05-08T17:38:05.297Z,36.27
2023-05-08T17:40:33.474Z,36.30
2023-05-08T17:43:01.596Z,36.63
2023-05-08T17:45:31.121Z,36.73
2023-05-08T17:47:59.345Z,36.83
2023-05-08T17:50:27.562Z,36.66
2023-05-08T17:52:55.700Z,36.82
2023-05-08T17:55:26.678Z,36.98
2023-05-08T17:57:55.922Z,37.19
2023-05-08T18:00:24.080Z,37.40
2023-05-08T18:02:55.546Z,37.56
2023-05-08T18:05:23.791Z,38.06
2023-05-08T18:07:52.319Z,38.17
2023-05-08T18:10:21.091Z,38.93
2023-05-08T18:12:49.172Z,39.91
2023-05-08T18:15:17.400Z,40.71
2023-05-08T18:17:45.612Z,41.14
2023-05-08T18:20:15.359Z,41.59
2023-05-08T18:22:43.490Z,42.10
2023-05-08T18:25:11.494Z,42.29
2023-05-08T18:27:41.164Z,42.28
2023-05-08T18:30:10.685Z,42.52
2023-05-08T18:32:38.826Z,42.68
2023-05-08T18:35:07.747Z,42.84
2023-05-08T18:37:37.182Z,42.81
2023-05-08T18:40:05.696Z,43.05
2023-05-08T18:42:33.850Z,43.42
2023-05-08T18:45:01.914Z,43.56
2023-05-08T18:47:29.966Z,43.93
2023-05-08T18:49:59.954Z,44.01
2023-05-08T18:52:28.074Z,44.05
2023-05-08T18:54:57.609Z,44.06
2023-05-08T18:57:25.697Z,44.12
2023-05-08T18:59:53.699Z,44.20
2023-05-08T19:02:24.743Z,44.44
2023-05-08T19:04:52.978Z,44.54
2023-05-08T19:07:21.379Z,44.65
2023-05-08T19:09:49.447Z,44.73
2023-05-08T19:12:18.908Z,44.87
2023-05-08T19:14:47.159Z,45.16
2023-05-08T19:17:15.328Z,45.09
2023-05-08T19:19:43.419Z,45.12
2023-05-08T19:22:11.476Z,45.20
2023-05-08T19:24:39.838Z,45.32
2023-05-08T19:27:07.946Z,45.56
2023-05-08T19:29:37.292Z,45.61
2023-05-08T19:32:05.973Z,45.79
2023-05-08T19:34:37.004Z,45.84
2023-05-08T19:37:05.148Z,45.89
2023-05-08T19:39:33.256Z,46.95
2023-05-08T19:42:01.306Z,47.70
2023-05-08T19:44:31.513Z,48.47
2023-05-08T19:47:03.146Z,49.14
2023-05-08T19:49:32.106Z,49.51
2023-05-08T19:52:00.409Z,49.94
2023-05-08T19:54:28.433Z,50.42
2023-05-08T19:56:56.468Z,50.59
2023-05-08T19:59:24.545Z,50.66
2023-05-08T20:01:53.705Z,50.91
2023-05-08T20:04:24.216Z,50.85
2023-05-08T20:06:52.268Z,51.23
2023-05-08T20:09:20.347Z,51.69
2023-05-08T20:11:48.373Z,51.60
2023-05-08T20:14:16.481Z,51.67
2023-05-08T20:16:44.576Z,51.62
2023-05-08T20:19:12.777Z,51.49
2023-05-08T20:21:42.216Z,51.56
2023-05-08T20:24:10.267Z,51.63
2023-05-08T20:26:38.357Z,51.75
2023-05-08T20:29:06.366Z,51.88
2023-05-08T20:31:34.522Z,52.10
2023-05-08T20:34:02.623Z,52.30
2023-05-08T20:36:31.324Z,52.53
2023-05-08T20:39:00.748Z,52.56
2023-05-08T20:41:28.857Z,52.59
2023-05-08T20:43:56.865Z,52.56
2023-05-08T20:46:24.946Z,52.53
2023-05-08T20:48:52.981Z,52.58
2023-05-08T20:51:21.047Z,52.64
2023-05-08T20:53:49.094Z,52.79
2023-05-08T20:56:19.264Z,53.01
2023-05-08T20:58:47.371Z,53.07
2023-05-08T21:01:15.563Z,53.08
2023-05-08T21:03:43.608Z,53.14
2023-05-08T21:06:13.835Z,53.04
2023-05-08T21:08:41.810Z,53.11
2023-05-08T21:11:09.847Z,52.96
2023-05-08T21:13:39.439Z,52.96
2023-05-08T21:16:08.370Z,52.93
2023-05-08T21:18:36.645Z,52.86
2023-05-08T21:21:04.820Z,52.72
2023-05-08T21:23:32.904Z,52.69
2023-05-08T21:26:01.000Z,52.69
2023-05-08T21:28:29.236Z,52.66
2023-05-08T21:30:59.116Z,52.55
2023-05-08T21:33:27.271Z,52.68
2023-05-08T21:35:55.316Z,52.67
2023-05-08T21:38:23.346Z,52.75
2023-05-08T21:40:51.370Z,52.82
2023-05-08T21:43:19.443Z,52.91
2023-05-08T21:45:47.501Z,52.89
2023-05-08T21:48:16.924Z,52.77
2023-05-08T21:50:44.933Z,52.83
2023-05-08T21:53:12.963Z,52.78
2023-05-08T21:55:40.991Z,52.72
2023-05-08T21:58:09.041Z,52.67
2023-05-08T22:00:37.038Z,52.67
2023-05-08T22:03:05.650Z,52.78
2023-05-08T22:05:35.183Z,52.69
2023-05-08T22:08:03.383Z,52.59
2023-05-08T22:10:31.380Z,52.62
2023-05-08T22:13:00.627Z,52.82
2023-05-08T22:15:30.739Z,52.89
2023-05-08T22:17:59.531Z,52.94
2023-05-08T22:20:27.728Z,53.01
2023-05-08T22:22:57.215Z,52.79
2023-05-08T22:25:25.711Z,52.90
2023-05-08T22:27:54.096Z,53.13
2023-05-08T22:30:22.371Z,53.01
2023-05-08T22:32:55.586Z,52.72
2023-05-08T22:35:24.620Z,52.85
2023-05-08T22:37:53.688Z,52.82
2023-05-08T22:40:23.313Z,52.78
2023-05-08T22:42:53.509Z,52.78
2023-05-08T22:45:23.508Z,52.74
2023-05-08T22:47:51.692Z,52.94
2023-05-08T22:50:20.034Z,53.00
2023-05-08T22:52:48.124Z,53.07
2023-05-08T22:55:16.935Z,53.27
2023-05-08T22:57:46.600Z,53.33
2023-05-08T23:00:16.262Z,53.49
2023-05-08T23:02:44.396Z,53.44
2023-05-08T23:05:12.686Z,53.60
2023-05-08T23:07:40.934Z,53.59
2023-05-08T23:10:09.694Z,53.57
2023-05-08T23:12:37.722Z,53.56
2023-05-08T23:15:08.427Z,53.28
2023-05-08T23:17:36.599Z,53.75
2023-05-08T23:20:05.902Z,53.74
2023-05-08T23:22:33.960Z,53.72
2023-05-08T23:25:02.085Z,53.78
2023-05-08T23:27:30.072Z,53.59
2023-05-08T23:29:58.080Z,53.59
2023-05-08T23:32:27.494Z,53.58
2023-05-08T23:34:55.553Z,53.54
2023-05-08T23:37:23.584Z,53.50
2023-05-08T23:39:51.750Z,53.62
2023-05-08T23:42:20.428Z,53.94
2023-05-08T23:44:48.453Z,54.12
2023-05-08T23:47:16.516Z,54.14
2023-05-08T23:49:45.945Z,54.10
2023-05-08T23:52:14.036Z,54.07
2023-05-08T23:54:42.128Z,53.94
2023-05-08T23:57:10.147Z,53.84
2023-05-08T23:59:38.194Z,53.76
